Time;durP1;ratioP1;P1;durP2;ratioP2;P2;SDS_P1;SDS_P2;PMS_P1;PMS_P2;Temp;Humidity;BMP_temperature;BMP_pressure;BME280_temperature;BME280_humidity;BME280_pressure;Samples;Min_cycle;Max_cycle;Signal;HPM_P1;HPM_P2
2023/09/06 00:01:36;;;;;;;3.90;2.33;;;18.40;1.00;;;;;;4993949;28;20385;-91
2023/09/06 00:04:02;;;;;;;1.80;1.70;;;18.40;1.00;;;;;;4987184;28;20428;-92
2023/09/06 00:06:27;;;;;;;3.00;2.20;;;18.30;1.00;;;;;;4993775;28;20421;-91
2023/09/06 00:08:53;;;;;;;2.10;1.90;;;18.30;1.00;;;;;;4995361;28;20478;-91
2023/09/06 00:11:19;;;;;;;3.33;2.30;;;;;;;;;;4993008;28;20414;-91
2023/09/06 00:13:45;;;;;;;3.00;2.00;;;18.30;1.00;;;;;;4994022;28;20896;-91
2023/09/06 00:16:10;;;;;;;2.60;1.75;;;18.30;1.00;;;;;;4990734;28;20456;-89
2023/09/06 00:18:37;;;;;;;2.80;2.00;;;19.20;1.00;;;;;;4996111;28;20447;-91
2023/09/06 00:21:05;;;;;;;4.47;1.67;;;18.20;1.00;;;;;;4996408;28;20396;-90
2023/09/06 00:23:31;;;;;;;2.13;1.95;;;18.20;1.00;;;;;;4998998;28;20503;-91
2023/09/06 00:25:57;;;;;;;2.42;1.70;;;20.80;1.00;;;;;;4995988;28;20403;-91
2023/09/06 00:28:25;;;;;;;3.20;1.80;;;16.50;1.00;;;;;;4994131;28;20430;-90
2023/09/06 00:30:52;;;;;;;1.83;1.60;;;18.50;1.00;;;;;;4995805;28;20399;-91
2023/09/06 00:33:17;;;;;;;2.17;1.70;;;16.60;1.00;;;;;;4996465;28;20413;-91
2023/09/06 00:35:43;;;;;;;1.90;1.70;;;16.00;1.00;;;;;;4996363;28;20798;-91
2023/09/06 00:38:10;;;;;;;1.70;1.60;;;17.70;1.00;;;;;;4998988;28;20492;-91
2023/09/06 00:40:37;;;;;;;1.70;1.60;;;17.80;1.00;;;;;;4995037;28;20881;-89
2023/09/06 00:43:04;;;;;;;2.28;1.58;;;17.10;1.00;;;;;;4995911;28;20408;-91
2023/09/06 00:45:44;;;;;;;2.03;1.92;;;17.60;1.00;;;;;;5007441;28;20472;-91
2023/09/06 00:48:13;;;;;;;2.25;1.80;;;17.60;1.00;;;;;;5014535;28;20410;-90
2023/09/06 00:50:42;;;;;;;1.55;1.40;;;20.00;1.00;;;;;;5028229;28;20396;-91
2023/09/06 00:53:09;;;;;;;3.67;1.60;;;19.60;1.00;;;;;;5030830;28;20436;-90
2023/09/06 00:55:37;;;;;;;1.90;1.80;;;18.00;1.00;;;;;;5031139;28;20419;-91
2023/09/06 00:58:03;;;;;;;1.65;1.40;;;17.30;1.00;;;;;;5022325;28;20458;-92
2023/09/06 01:00:30;;;;;;;2.03;1.80;;;17.20;1.00;;;;;;5011447;28;20393;-91
2023/09/06 01:02:56;;;;;;;3.75;2.08;;;17.30;1.00;;;;;;5003891;28;20397;-90
2023/09/06 01:05:23;;;;;;;1.77;1.67;;;17.00;1.00;;;;;;5011368;28;20404;-90
2023/09/06 01:08:02;;;;;;;3.00;1.90;;;17.40;1.00;;;;;;5019786;28;20393;-89
2023/09/06 01:10:28;;;;;;;1.90;1.80;;;18.70;1.00;;;;;;5012519;28;20394;-88
2023/09/06 01:12:55;;;;;;;2.90;2.17;;;18.10;1.00;;;;;;5013794;28;20464;-90
2023/09/06 01:15:21;;;;;;;2.33;2.13;;;16.50;1.00;;;;;;5008979;28;20420;-90
2023/09/06 01:17:51;;;;;;;2.33;2.10;;;17.00;1.00;;;;;;5009804;28;20398;-90
2023/09/06 01:20:40;;;;;;;2.60;2.33;;;17.50;1.00;;;;;;4998214;28;20391;-89
2023/09/06 01:23:28;;;;;;;2.33;2.13;;;17.00;1.00;;;;;;4991430;28;20487;-90
2023/09/06 01:25:54;;;;;;;3.10;2.40;;;17.20;1.00;;;;;;5006027;28;20382;-90
2023/09/06 01:28:20;;;;;;;2.40;2.20;;;17.00;1.00;;;;;;5014293;28;20420;-91
2023/09/06 01:30:46;;;;;;;3.88;2.55;;;19.00;1.00;;;;;;5021717;28;20923;-90
2023/09/06 01:33:16;;;;;;;2.60;2.40;;;16.10;1.00;;;;;;5034142;28;20419;-90
2023/09/06 01:35:41;;;;;;;3.10;2.50;;;17.20;1.00;;;;;;5002910;28;20396;-91
2023/09/06 01:38:07;;;;;;;2.83;2.63;;;17.70;1.00;;;;;;5001868;28;20407;-90
2023/09/06 01:40:32;;;;;;;2.58;2.38;;;16.80;1.00;;;;;;5000376;28;20872;-91
2023/09/06 01:42:58;;;;;;;3.57;2.70;;;17.50;1.00;;;;;;5000551;28;20480;-91
2023/09/06 01:45:24;;;;;;;4.43;2.70;;;18.40;1.00;;;;;;5000041;28;20400;-91
2023/09/06 01:47:50;;;;;;;3.00;2.80;;;16.70;1.00;;;;;;5000814;28;20429;-91
2023/09/06 01:50:19;;;;;;;3.20;2.90;;;18.30;1.00;;;;;;4999875;28;20404;-91
2023/09/06 01:52:45;;;;;;;3.70;2.90;;;16.70;1.00;;;;;;5001724;28;20491;-91
2023/09/06 01:55:11;;;;;;;3.20;2.90;;;16.20;1.00;;;;;;5009155;28;20384;-91
2023/09/06 01:57:36;;;;;;;2.80;2.60;;;19.40;1.00;;;;;;5030089;28;20782;-92
2023/09/06 02:00:18;;;;;;;3.80;3.30;;;16.40;1.00;;;;;;5028236;28;20418;-92
2023/09/06 02:02:44;;;;;;;3.45;3.13;;;16.40;1.00;;;;;;5028164;28;20803;-91
2023/09/06 02:05:10;;;;;;;3.75;3.00;;;16.30;1.00;;;;;;5001883;28;20482;-92
2023/09/06 02:07:36;;;;;;;3.40;2.90;;;18.40;1.00;;;;;;5004157;28;20781;-92
2023/09/06 02:10:03;;;;;;;3.30;3.00;;;16.30;1.00;;;;;;5005575;28;20392;-92
2023/09/06 02:12:29;;;;;;;4.00;3.20;;;16.20;1.00;;;;;;5002484;28;20416;-92
2023/09/06 02:14:56;;;;;;;4.28;3.30;;;18.50;1.00;;;;;;5011787;28;20574;-92
2023/09/06 02:17:24;;;;;;;3.35;3.05;;;18.90;1.00;;;;;;5020481;28;20463;-92
2023/09/06 02:19:49;;;;;;;4.13;3.20;;;16.80;1.00;;;;;;5017715;28;20464;-92
2023/09/06 02:22:15;;;;;;;3.20;2.90;;;16.50;1.00;;;;;;5001992;28;20432;-91
2023/09/06 02:24:40;;;;;;;5.40;3.40;;;17.50;1.00;;;;;;5002108;28;20397;-91
2023/09/06 02:27:06;;;;;;;3.47;3.17;;;16.00;1.00;;;;;;5003850;28;20405;-92
2023/09/06 02:29:31;;;;;;;3.40;3.10;;;16.10;1.00;;;;;;5003489;28;20397;-91
2023/09/06 02:31:57;;;;;;;4.13;3.33;;;18.30;1.00;;;;;;5014936;28;20408;-91
2023/09/06 02:34:23;;;;;;;3.70;3.30;;;15.80;1.00;;;;;;5032755;28;20437;-92
2023/09/06 02:36:48;;;;;;;3.70;3.40;;;15.80;1.00;;;;;;5022042;28;20422;-92
2023/09/06 02:39:14;;;;;;;3.60;3.30;;;16.50;1.00;;;;;;5017170;28;20388;-92
2023/09/06 02:41:39;;;;;;;3.70;3.40;;;18.30;1.00;;;;;;5010943;28;20405;-91
2023/09/06 02:44:05;;;;;;;3.83;3.53;;;16.40;1.00;;;;;;4982868;28;20398;-91
2023/09/06 02:46:33;;;;;;;4.80;3.70;;;15.70;1.00;;;;;;4977707;28;20394;-91
2023/09/06 02:49:10;;;;;;;3.83;3.00;;;15.60;1.00;;;;;;4977307;28;20890;-90
2023/09/06 02:51:42;;;;;;;4.10;3.13;;;15.60;1.00;;;;;;4985208;28;20459;-90
2023/09/06 02:54:08;;;;;;;3.23;2.93;;;15.80;1.00;;;;;;5003751;28;20398;-90
2023/09/06 02:56:37;;;;;;;3.40;3.10;;;15.30;1.00;;;;;;4998499;28;20773;-91
2023/09/06 02:59:12;;;;;;;3.95;3.40;;;15.40;1.00;;;;;;4996427;28;20468;-91
2023/09/06 03:01:44;;;;;;;4.50;2.92;;;16.50;1.00;;;;;;4997800;28;20395;-90
2023/09/06 03:04:13;;;;;;;4.20;3.22;;;15.40;1.00;;;;;;4997589;28;20898;-89
2023/09/06 03:06:43;;;;;;;3.50;3.20;;;15.50;1.00;;;;;;4996897;28;20397;-91
2023/09/06 03:09:10;;;;;;;4.05;3.65;;;16.80;1.00;;;;;;4997559;28;20876;-90
2023/09/06 03:11:35;;;;;;;3.95;3.65;;;15.50;1.00;;;;;;5014985;28;20408;-91
2023/09/06 03:14:03;;;;;;;4.20;3.70;;;16.80;1.00;;;;;;4996707;28;20839;-91
2023/09/06 03:16:38;;;;;;;3.33;3.08;;;16.20;1.00;;;;;;4996677;28;20408;-91
2023/09/06 03:19:10;;;;;;;3.63;3.33;;;15.40;1.00;;;;;;4997408;28;20385;-91
2023/09/06 03:21:39;;;;;;;4.22;3.03;;;15.50;1.00;;;;;;4998424;28;20397;-90
2023/09/06 03:24:12;;;;;;;3.90;3.60;;;17.40;1.00;;;;;;4997517;28;20398;-90
2023/09/06 03:26:43;;;;;;;3.60;3.30;;;15.60;1.00;;;;;;4996672;28;20876;-91
2023/09/06 03:29:10;;;;;;;3.63;3.25;;;15.40;1.00;;;;;;4997040;28;20435;-90
2023/09/06 03:31:42;;;;;;;3.20;2.90;;;16.80;1.00;;;;;;4998844;28;20396;-91
2023/09/06 03:34:13;;;;;;;3.08;2.88;;;15.30;1.00;;;;;;5019745;28;20397;-89
2023/09/06 03:36:46;;;;;;;3.50;3.20;;;15.50;1.00;;;;;;5002496;28;20816;-91
2023/09/06 03:39:13;;;;;;;3.60;3.05;;;15.60;1.00;;;;;;4998431;28;20424;-91
2023/09/06 03:41:41;;;;;;;5.80;3.42;;;15.70;1.00;;;;;;4999790;28;20423;-91
2023/09/06 03:44:07;;;;;;;3.72;3.42;;;16.40;1.00;;;;;;5017710;28;20380;-91
2023/09/06 03:46:34;;;;;;;3.20;3.00;;;14.50;1.00;;;;;;4998194;28;20381;-91
2023/09/06 03:49:00;;;;;;;5.20;3.00;;;15.60;1.00;;;;;;4997492;28;20431;-91
2023/09/06 03:51:26;;;;;;;3.80;2.90;;;16.00;1.00;;;;;;4997295;28;20393;-91
2023/09/06 03:53:51;;;;;;;4.30;3.20;;;15.80;1.00;;;;;;4998275;28;20404;-91
2023/09/06 03:56:17;;;;;;;3.57;3.10;;;16.30;1.00;;;;;;4998861;28;20525;-92
2023/09/06 03:58:42;;;;;;;4.50;3.20;;;15.30;1.00;;;;;;5000680;28;20905;-92
2023/09/06 04:01:10;;;;;;;3.80;3.40;;;14.30;1.00;;;;;;4999348;28;20523;-90
2023/09/06 04:03:38;;;;;;;5.50;3.80;;;16.60;1.00;;;;;;4996805;28;20404;-89
2023/09/06 04:06:07;;;;;;;3.72;3.42;;;17.80;1.00;;;;;;4997166;28;20389;-91
2023/09/06 04:08:34;;;;;;;3.80;3.50;;;16.00;1.00;;;;;;4998338;28;20408;-91
2023/09/06 04:10:59;;;;;;;3.72;3.42;;;17.60;1.00;;;;;;4997511;28;20473;-89
2023/09/06 04:13:25;;;;;;;4.10;3.60;;;15.10;1.00;;;;;;5012741;23;20434;-86
2023/09/06 04:15:50;;;;;;;4.47;3.40;;;15.10;1.00;;;;;;5002650;28;20757;-86
2023/09/06 04:18:18;;;;;;;4.67;3.40;;;15.10;1.00;;;;;;4989670;28;20395;-86
2023/09/06 04:20:44;;;;;;;3.87;3.57;;;16.30;1.00;;;;;;5006635;28;20747;-87
2023/09/06 04:23:12;;;;;;;4.88;3.60;;;15.40;1.00;;;;;;5002782;28;20395;-86
2023/09/06 04:25:42;;;;;;;5.07;3.50;;;15.00;1.00;;;;;;5004900;28;20875;-87
2023/09/06 04:28:09;;;;;;;3.53;3.22;;;15.00;1.00;;;;;;4986728;28;20399;-85
2023/09/06 04:30:36;;;;;;;5.15;3.50;;;14.90;1.00;;;;;;5004377;28;20394;-86
2023/09/06 04:33:03;;;;;;;3.92;3.35;;;14.70;1.00;;;;;;4999015;28;20415;-87
2023/09/06 04:35:38;;;;;;;4.40;3.60;;;14.80;1.00;;;;;;5002154;28;20394;-86
2023/09/06 04:38:04;;;;;;;4.40;3.47;;;14.80;1.00;;;;;;4986744;28;20932;-87
2023/09/06 04:40:30;;;;;;;4.73;3.30;;;14.90;1.00;;;;;;5003281;28;20461;-86
2023/09/06 04:42:56;;;;;;;4.90;3.30;;;14.60;1.00;;;;;;5001101;28;20410;-86
2023/09/06 04:45:21;;;;;;;4.05;3.17;;;17.80;1.00;;;;;;5003672;28;20843;-87
2023/09/06 04:47:47;;;;;;;4.10;3.70;;;14.70;1.00;;;;;;4986804;28;20490;-87
2023/09/06 04:50:13;;;;;;;4.15;2.90;;;14.90;1.00;;;;;;4989183;28;20398;-87
2023/09/06 04:52:47;;;;;;;3.97;3.23;;;15.40;1.00;;;;;;4987465;28;20434;-85
2023/09/06 04:55:13;;;;;;;4.72;3.10;;;14.60;1.00;;;;;;4990792;28;20409;-86
2023/09/06 04:57:41;;;;;;;5.10;2.80;;;13.00;1.00;;;;;;4990388;28;20384;-86
2023/09/06 05:00:17;;;;;;;5.30;3.25;;;14.50;1.00;;;;;;4984896;28;20404;-86
2023/09/06 05:02:43;;;;;;;5.10;3.30;;;14.60;1.00;;;;;;4988387;28;20392;-86
2023/09/06 05:05:09;;;;;;;4.10;3.53;;;13.90;1.00;;;;;;4984702;28;20398;-86
2023/09/06 05:07:35;;;;;;;3.78;3.13;;;16.80;1.00;;;;;;5009381;28;20414;-85
2023/09/06 05:10:01;;;;;;;3.80;3.50;;;15.70;1.00;;;;;;5007900;28;20422;-87
2023/09/06 05:12:26;;;;;;;5.40;3.20;;;14.10;1.00;;;;;;4983535;28;20407;-86
2023/09/06 05:14:54;;;;;;;4.00;3.10;;;14.50;1.00;;;;;;5010707;28;20401;-86
2023/09/06 05:17:19;;;;;;;3.38;2.95;;;16.10;1.00;;;;;;4991995;28;20422;-86
2023/09/06 05:19:52;;;;;;;3.50;3.20;;;14.30;1.00;;;;;;5010236;28;20417;-86
2023/09/06 05:22:17;;;;;;;4.22;3.20;;;16.40;1.00;;;;;;5008586;28;20402;-86
2023/09/06 05:24:43;;;;;;;3.35;3.03;;;14.90;1.00;;;;;;5008715;28;20912;-86
2023/09/06 05:27:09;;;;;;;3.17;2.88;;;13.50;1.00;;;;;;5008532;28;20393;-86
2023/09/06 05:29:34;;;;;;;3.30;3.00;;;14.60;1.00;;;;;;5008345;28;20405;-86
2023/09/06 05:32:00;;;;;;;3.97;3.00;;;14.60;1.00;;;;;;5007292;28;20548;-87
2023/09/06 05:34:25;;;;;;;3.57;3.20;;;14.50;1.00;;;;;;5006758;28;20386;-87
2023/09/06 05:36:51;;;;;;;4.03;3.10;;;14.60;1.00;;;;;;5006152;28;20382;-87
2023/09/06 05:39:20;;;;;;;4.22;3.08;;;14.50;1.00;;;;;;4990098;28;20383;-86
2023/09/06 05:41:50;;;;;;;4.97;3.15;;;14.60;1.00;;;;;;5007552;28;20394;-86
2023/09/06 05:44:16;;;;;;;4.47;3.50;;;14.80;1.00;;;;;;4992732;28;20415;-86
2023/09/06 05:46:43;;;;;;;3.50;3.20;;;14.70;1.00;;;;;;4987884;28;20400;-87
2023/09/06 05:49:08;;;;;;;3.60;3.17;;;14.80;1.00;;;;;;4973775;28;20402;-86
2023/09/06 05:51:34;;;;;;;4.83;2.80;;;14.90;1.00;;;;;;4986729;28;20464;-86
2023/09/06 05:54:00;;;;;;;3.70;3.00;;;14.70;1.00;;;;;;5005907;28;20445;-86
2023/09/06 05:56:26;;;;;;;3.53;2.60;;;14.90;1.00;;;;;;4985888;28;20394;-86
2023/09/06 05:58:51;;;;;;;3.50;3.20;;;14.80;1.00;;;;;;5002435;28;20418;-86
2023/09/06 06:01:18;;;;;;;3.20;2.90;;;15.10;1.00;;;;;;4983765;28;20805;-87
2023/09/06 06:03:43;;;;;;;3.28;2.97;;;15.00;1.00;;;;;;4983175;28;20424;-87
2023/09/06 06:06:13;;;;;;;3.57;3.10;;;14.90;1.00;;;;;;4994820;28;20460;-86
2023/09/06 06:08:41;;;;;;;4.35;3.08;;;15.00;1.00;;;;;;4981535;28;20403;-86
2023/09/06 06:11:08;;;;;;;5.93;3.03;;;15.50;1.00;;;;;;4963714;28;20392;-86
2023/09/06 06:13:34;;;;;;;3.45;3.13;;;15.00;1.00;;;;;;4998699;28;20420;-86
2023/09/06 06:16:00;;;;;;;5.90;3.10;;;15.10;1.00;;;;;;4991963;28;20394;-86
2023/09/06 06:18:26;;;;;;;3.30;2.90;;;17.00;1.00;;;;;;5004471;28;20386;-87
2023/09/06 06:20:52;;;;;;;3.80;2.70;;;15.20;1.00;;;;;;4992403;28;20454;-86
2023/09/06 06:23:18;;;;;;;4.15;3.30;;;15.10;1.00;;;;;;5003159;28;20394;-87
2023/09/06 06:25:43;;;;;;;4.00;3.00;;;15.40;1.00;;;;;;5003024;28;20438;-86
2023/09/06 06:28:09;;;;;;;4.07;2.70;;;16.70;1.00;;;;;;4995331;28;20457;-86
2023/09/06 06:30:34;;;;;;;3.70;3.20;;;15.50;1.00;;;;;;4987774;28;20393;-86
2023/09/06 06:33:00;;;;;;;4.60;3.10;;;15.60;1.00;;;;;;5017994;28;20413;-87
2023/09/06 06:35:26;;;;;;;5.17;2.83;;;13.80;1.00;;;;;;5010510;28;20406;-87
2023/09/06 06:37:52;;;;;;;3.63;3.15;;;16.50;1.00;;;;;;4984055;28;20437;-87
2023/09/06 06:40:18;;;;;;;3.20;2.90;;;15.80;1.00;;;;;;4988862;28;20386;-87
2023/09/06 06:42:45;;;;;;;3.67;3.00;;;17.40;1.00;;;;;;5012240;28;20454;-87
2023/09/06 06:45:10;;;;;;;4.00;3.00;;;17.30;1.00;;;;;;4986379;28;20398;-87
2023/09/06 06:47:36;;;;;;;2.90;2.70;;;16.10;1.00;;;;;;4986335;28;20479;-86
2023/09/06 06:50:06;;;;;;;4.13;3.08;;;16.20;1.00;;;;;;4985663;28;20393;-87
2023/09/06 06:52:36;;;;;;;4.22;2.70;;;16.30;1.00;;;;;;4986465;28;20417;-87
2023/09/06 06:55:03;;;;;;;3.83;3.10;;;16.20;1.00;;;;;;4970498;28;20404;-87
2023/09/06 06:57:29;;;;;;;3.40;3.00;;;16.30;1.00;;;;;;4982096;28;20442;-87
2023/09/06 06:59:55;;;;;;;4.20;3.00;;;16.00;1.00;;;;;;4962880;28;20396;-87
2023/09/06 07:02:20;;;;;;;3.10;2.90;;;16.50;1.00;;;;;;4980584;28;20392;-87
2023/09/06 07:04:47;;;;;;;3.78;3.05;;;16.60;1.00;;;;;;4964026;28;20396;-87
2023/09/06 07:07:13;;;;;;;3.22;2.72;;;17.30;1.00;;;;;;4994647;28;20405;-87
2023/09/06 07:09:38;;;;;;;3.57;2.50;;;15.60;1.00;;;;;;4982266;28;20406;-87
2023/09/06 07:12:04;;;;;;;3.08;2.78;;;16.90;1.00;;;;;;4985082;28;20414;-86
2023/09/06 07:14:30;;;;;;;3.40;2.70;;;16.90;1.00;;;;;;5004977;28;20401;-86
2023/09/06 07:16:56;;;;;;;2.70;2.50;;;20.00;1.00;;;;;;5004697;28;20417;-86
2023/09/06 07:19:21;;;;;;;3.43;3.13;;;16.70;1.00;;;;;;4992297;28;20392;-85
2023/09/06 07:21:47;;;;;;;3.03;2.73;;;17.10;1.00;;;;;;4992887;28;20408;-84
2023/09/06 07:24:14;;;;;;;2.92;2.65;;;15.70;1.00;;;;;;4990707;28;20408;-85
2023/09/06 07:26:40;;;;;;;3.30;3.00;;;17.40;1.00;;;;;;4983942;28;20394;-87
2023/09/06 07:29:06;;;;;;;2.75;2.55;;;19.80;1.00;;;;;;4992772;28;20392;-86
2023/09/06 07:31:32;;;;;;;3.37;3.07;;;17.80;1.00;;;;;;4988668;28;20488;-85
2023/09/06 07:33:58;;;;;;;3.73;3.10;;;18.20;1.00;;;;;;5004820;28;20474;-86
2023/09/06 07:36:24;;;;;;;4.40;3.00;;;20.10;1.00;;;;;;4992011;28;20412;-87
2023/09/06 07:38:54;;;;;;;4.65;3.22;;;19.40;1.00;;;;;;5003704;28;20390;-87
2023/09/06 07:41:20;;;;;;;4.82;3.28;;;20.10;1.00;;;;;;5004566;28;20466;-88
2023/09/06 07:43:46;;;;;;;3.55;3.10;;;19.00;1.00;;;;;;4976903;28;20428;-87
2023/09/06 07:46:12;;;;;;;3.47;3.17;;;21.60;1.00;;;;;;4973070;28;20424;-87
2023/09/06 07:48:38;;;;;;;4.18;2.90;;;19.20;1.00;;;;;;4986747;28;20396;-89
2023/09/06 07:51:05;;;;;;;3.90;3.30;;;19.10;1.00;;;;;;4969275;28;20467;-88
2023/09/06 07:53:31;;;;;;;4.10;3.25;;;19.40;1.00;;;;;;4992238;28;20854;-88
2023/09/06 07:55:57;;;;;;;3.30;3.10;;;19.10;1.00;;;;;;4970273;28;20876;-89
2023/09/06 07:58:25;;;;;;;3.75;3.00;;;20.70;1.00;;;;;;4960286;28;22178;-87
2023/09/06 08:00:51;;;;;;;5.13;3.40;;;19.60;1.00;;;;;;4975464;28;20517;-87
2023/09/06 08:03:17;;;;;;;5.40;3.50;;;19.70;1.00;;;;;;4988991;28;20422;-86
2023/09/06 08:05:42;;;;;;;3.92;3.50;;;19.70;1.00;;;;;;4976836;28;20419;-86
2023/09/06 08:08:10;;;;;;;4.00;3.20;;;19.40;1.00;;;;;;4995006;28;20810;-86
2023/09/06 08:10:42;;;;;;;3.80;3.40;;;21.50;1.00;;;;;;4974730;28;20388;-87
2023/09/06 08:13:07;;;;;;;4.10;3.70;;;20.00;1.00;;;;;;4969462;28;20423;-87
2023/09/06 08:15:34;;;;;;;3.70;3.38;;;21.90;1.00;;;;;;4990656;28;20406;-87
2023/09/06 08:18:01;;;;;;;4.28;3.60;;;20.90;1.00;;;;;;4976660;28;20472;-86
2023/09/06 08:20:27;;;;;;;3.85;3.45;;;20.20;1.00;;;;;;4973955;28;20520;-87
2023/09/06 08:22:52;;;;;;;4.50;3.70;;;21.60;1.00;;;;;;4991526;28;20405;-87
2023/09/06 08:25:18;;;;;;;4.30;3.70;;;20.90;1.00;;;;;;4974462;28;20490;-87
2023/09/06 08:27:44;;;;;;;3.60;3.30;;;21.20;1.00;;;;;;4985901;28;20456;-87
2023/09/06 08:30:12;;;;;;;4.20;3.33;;;20.40;1.00;;;;;;4993089;28;20424;-87
2023/09/06 08:32:40;;;;;;;4.40;3.30;;;20.50;1.00;;;;;;4969831;28;20513;-86
2023/09/06 08:35:09;;;;;;;5.60;3.70;;;22.10;1.00;;;;;;4990539;28;20394;-87
2023/09/06 08:37:35;;;;;;;4.13;3.72;;;21.20;1.00;;;;;;4995930;28;20391;-82
2023/09/06 08:40:05;;;;;;;3.60;3.10;;;20.60;1.00;;;;;;4982178;28;20390;-82
2023/09/06 08:42:35;;;;;;;3.85;3.45;;;20.60;1.00;;;;;;4991316;28;20929;-82
2023/09/06 08:45:04;;;;;;;4.50;3.45;;;20.70;1.00;;;;;;4962662;28;20455;-79
2023/09/06 08:47:30;;;;;;;4.05;3.65;;;20.80;1.00;;;;;;4976043;28;20391;-79
2023/09/06 08:49:56;;;;;;;4.60;3.60;;;20.90;1.00;;;;;;4979746;28;20383;-79
2023/09/06 08:52:22;;;;;;;4.35;3.75;;;21.00;1.00;;;;;;4984443;28;21092;-80
2023/09/06 08:54:51;;;;;;;5.00;3.35;;;21.00;1.00;;;;;;4979250;28;20452;-79
2023/09/06 08:57:18;;;;;;;4.70;3.57;;;21.10;1.00;;;;;;4986813;28;20788;-79
2023/09/06 08:59:46;;;;;;;3.97;3.60;;;21.30;1.00;;;;;;4973202;28;20897;-79
2023/09/06 09:02:15;;;;;;;3.70;3.40;;;21.40;1.00;;;;;;4972553;28;20762;-80
2023/09/06 09:04:42;;;;;;;5.53;3.60;;;21.30;1.00;;;;;;4980741;28;20391;-79
2023/09/06 09:07:16;;;;;;;4.40;3.42;;;21.30;1.00;;;;;;4970262;28;20400;-80
2023/09/06 09:10:04;;;;;;;4.05;3.35;;;21.40;1.00;;;;;;4975170;28;20469;-81
2023/09/06 09:12:31;;;;;;;3.92;3.63;;;21.80;1.00;;;;;;4987870;28;20410;-79
2023/09/06 09:14:58;;;;;;;3.90;3.30;;;21.90;1.00;;;;;;4988464;28;20399;-79
2023/09/06 09:17:25;;;;;;;3.27;2.97;;;21.80;1.00;;;;;;4990996;28;20841;-79
2023/09/06 09:19:53;;;;;;;4.07;3.47;;;21.90;1.00;;;;;;4992855;28;20418;-79
2023/09/06 09:22:23;;;;;;;3.58;3.28;;;22.10;1.00;;;;;;4990972;28;20394;-78
2023/09/06 09:24:49;;;;;;;4.75;3.00;;;22.10;1.00;;;;;;4994902;28;20390;-79
2023/09/06 09:27:19;;;;;;;7.18;3.40;;;22.00;1.00;;;;;;4990886;28;20451;-80
2023/09/06 09:29:47;;;;;;;3.47;3.17;;;21.90;1.00;;;;;;4986957;28;20762;-79
2023/09/06 09:32:14;;;;;;;3.63;3.28;;;22.20;1.00;;;;;;4988898;28;20454;-79
2023/09/06 09:34:41;;;;;;;3.70;3.30;;;22.20;1.00;;;;;;4973179;28;20390;-79
2023/09/06 09:37:08;;;;;;;3.75;3.45;;;22.30;1.00;;;;;;4993540;28;20926;-80
2023/09/06 09:39:34;;;;;;;4.50;3.42;;;22.40;1.00;;;;;;4976962;28;20396;-80
2023/09/06 09:42:00;;;;;;;5.55;3.20;;;22.50;1.00;;;;;;4982949;28;20394;-79
2023/09/06 09:44:26;;;;;;;4.40;4.00;;;22.50;1.00;;;;;;4982296;28;20768;-79
2023/09/06 09:46:56;;;;;;;4.72;3.22;;;22.60;1.00;;;;;;4986095;28;20386;-79
2023/09/06 09:49:22;;;;;;;3.33;3.03;;;22.70;1.00;;;;;;4979693;28;20384;-79
2023/09/06 09:51:50;;;;;;;4.65;3.45;;;22.70;1.00;;;;;;4992535;28;20452;-79
2023/09/06 09:54:18;;;;;;;3.95;3.60;;;22.70;1.00;;;;;;4982462;28;20388;-79
2023/09/06 09:56:54;;;;;;;3.75;3.45;;;22.80;1.00;;;;;;4980469;28;20402;-79
2023/09/06 09:59:21;;;;;;;3.70;3.40;;;22.90;1.00;;;;;;4986102;28;20449;-80
2023/09/06 10:01:51;;;;;;;3.63;3.33;;;22.90;1.00;;;;;;4994036;28;20395;-79
2023/09/06 10:04:19;;;;;;;3.30;3.00;;;23.00;1.00;;;;;;4988742;28;20390;-79
2023/09/06 10:06:45;;;;;;;4.82;3.35;;;23.10;1.00;;;;;;4971215;28;20403;-77
2023/09/06 10:09:12;;;;;;;4.43;3.20;;;23.00;1.00;;;;;;4987510;28;20911;-77
2023/09/06 10:11:40;;;;;;;5.53;3.28;;;22.90;1.00;;;;;;4983596;28;20410;-80
2023/09/06 10:14:06;;;;;;;5.72;4.10;;;23.10;1.00;;;;;;4991423;28;20414;-80
2023/09/06 10:16:32;;;;;;;4.45;3.55;;;23.30;1.00;;;;;;4986004;28;20758;-79
2023/09/06 10:18:58;;;;;;;3.55;3.25;;;23.30;1.00;;;;;;4984832;28;20473;-80
2023/09/06 10:21:25;;;;;;;4.05;3.50;;;23.30;1.00;;;;;;4984975;28;20386;-80
2023/09/06 10:23:50;;;;;;;3.93;3.30;;;23.30;1.00;;;;;;4986105;28;20400;-80
2023/09/06 10:26:26;;;;;;;4.30;3.40;;;23.40;1.00;;;;;;4986569;28;20386;-80
2023/09/06 10:29:00;;;;;;;3.75;3.42;;;23.50;1.00;;;;;;4969667;28;20819;-80
2023/09/06 10:31:35;;;;;;;7.10;3.90;;;23.70;1.00;;;;;;4991781;28;20406;-80
2023/09/06 10:34:01;;;;;;;3.72;3.30;;;23.70;1.00;;;;;;4978919;28;20412;-82
2023/09/06 10:36:27;;;;;;;5.40;3.75;;;23.70;1.00;;;;;;4991890;28;20395;-80
2023/09/06 10:38:53;;;;;;;3.53;3.22;;;23.70;1.00;;;;;;4989687;28;20392;-79
2023/09/06 10:41:22;;;;;;;6.53;3.70;;;23.70;1.00;;;;;;4989128;28;20460;-80
2023/09/06 10:43:57;;;;;;;4.32;3.50;;;23.90;1.00;;;;;;4997799;28;20518;-79
2023/09/06 10:46:27;;;;;;;3.10;2.90;;;24.00;1.00;;;;;;4973869;28;20396;-79
2023/09/06 10:49:11;;;;;;;4.18;3.72;;;24.10;1.00;;;;;;4997158;28;20404;-79
2023/09/06 10:51:56;;;;;;;4.00;3.30;;;24.10;1.00;;;;;;4988544;28;20911;-80
2023/09/06 10:54:23;;;;;;;4.03;3.63;;;24.30;1.00;;;;;;4988978;28;20392;-80
2023/09/06 10:56:59;;;;;;;3.80;3.40;;;24.40;1.00;;;;;;4989620;28;20388;-79
2023/09/06 10:59:26;;;;;;;4.10;3.13;;;24.60;1.00;;;;;;5007642;28;20471;-79
2023/09/06 11:02:22;;;;;;;5.40;3.50;;;24.60;1.00;;;;;;5005036;28;20412;-79
2023/09/06 11:04:48;;;;;;;6.47;3.90;;;24.60;1.00;;;;;;4992715;28;20399;-81
2023/09/06 11:07:14;;;;;;;4.83;3.27;;;24.70;1.00;;;;;;4995697;28;20383;-80
2023/09/06 11:09:50;;;;;;;3.97;3.20;;;24.70;1.00;;;;;;5007094;28;20402;-79
2023/09/06 11:12:16;;;;;;;3.58;3.28;;;25.00;1.00;;;;;;5007804;28;20775;-79
2023/09/06 11:14:46;;;;;;;3.55;2.90;;;25.10;1.00;;;;;;5008862;28;20395;-80
2023/09/06 11:17:20;;;;;;;3.50;3.10;;;25.20;1.00;;;;;;5004524;28;20428;-80
2023/09/06 11:19:46;;;;;;;3.20;2.90;;;25.40;1.00;;;;;;4973421;28;20399;-78
2023/09/06 11:22:11;;;;;;;3.77;3.43;;;25.60;1.00;;;;;;4974271;28;20428;-80
2023/09/06 11:24:38;;;;;;;3.50;3.05;;;25.70;1.00;;;;;;4989573;28;20450;-79
2023/09/06 11:27:20;;;;;;;4.20;3.10;;;26.00;1.00;;;;;;5002498;28;20537;-80
2023/09/06 11:29:48;;;;;;;3.20;2.90;;;26.00;1.00;;;;;;4972773;28;20813;-79
2023/09/06 11:32:13;;;;;;;3.10;2.90;;;26.50;1.00;;;;;;4997608;28;20416;-80
2023/09/06 11:34:44;;;;;;;4.20;3.10;;;27.00;1.00;;;;;;4995636;28;20396;-79
2023/09/06 11:37:12;;;;;;;6.05;3.13;;;27.40;1.00;;;;;;4989743;28;20439;-79
2023/09/06 11:39:40;;;;;;;4.80;3.20;;;28.30;1.00;;;;;;4988763;28;20402;-79
2023/09/06 11:42:08;;;;;;;3.97;3.20;;;28.50;1.00;;;;;;4988432;28;20396;-81
2023/09/06 11:44:38;;;;;;;4.10;2.70;;;29.10;1.00;;;;;;4992117;28;20450;-81
2023/09/06 11:47:06;;;;;;;2.60;2.40;;;28.70;1.00;;;;;;5013289;28;20899;-79
2023/09/06 11:49:35;;;;;;;2.50;2.30;;;28.60;1.00;;;;;;5013095;28;20375;-80
2023/09/06 11:52:04;;;;;;;4.40;2.55;;;28.80;1.00;;;;;;4992347;28;20387;-80
2023/09/06 11:54:32;;;;;;;2.72;2.50;;;28.70;1.00;;;;;;4997328;28;20520;-80
2023/09/06 11:56:57;;;;;;;2.97;2.60;;;28.40;1.00;;;;;;4989654;28;20422;-87
2023/09/06 11:59:24;;;;;;;3.15;2.85;;;28.60;1.00;;;;;;4969037;28;20418;-87
2023/09/06 12:01:58;;;;;;;3.20;2.50;;;27.70;1.00;;;;;;4971437;28;20386;-87
2023/09/06 12:04:26;;;;;;;3.63;2.80;;;27.90;1.00;;;;;;4981937;28;20402;-87
2023/09/06 12:06:55;;;;;;;2.95;2.55;;;28.30;1.00;;;;;;4985618;28;20398;-86
2023/09/06 12:09:21;;;;;;;2.80;2.60;;;28.40;1.00;;;;;;4984857;28;20481;-88
2023/09/06 12:11:46;;;;;;;5.10;3.00;;;29.10;1.00;;;;;;4995750;28;20412;-85
2023/09/06 12:14:12;;;;;;;3.08;2.58;;;28.50;1.00;;;;;;4984628;28;20426;-87
2023/09/06 12:16:41;;;;;;;2.80;2.42;;;28.60;1.00;;;;;;4977100;28;20394;-81
2023/09/06 12:19:12;;;;;;;2.88;2.42;;;28.70;1.00;;;;;;5005366;28;20398;-83
2023/09/06 12:21:38;;;;;;;3.38;2.75;;;28.70;1.00;;;;;;5006995;28;20429;-85
2023/09/06 12:24:03;;;;;;;3.63;2.63;;;28.20;1.00;;;;;;4986010;28;20494;-87
2023/09/06 12:26:29;;;;;;;3.10;2.90;;;28.50;1.00;;;;;;4990297;28;21121;-86
2023/09/06 12:28:55;;;;;;;2.50;2.30;;;28.90;1.00;;;;;;4975624;28;20782;-86
2023/09/06 12:31:20;;;;;;;3.38;2.40;;;27.90;1.00;;;;;;4969786;28;20439;-86
2023/09/06 12:33:49;;;;;;;2.90;2.60;;;28.30;1.00;;;;;;4966246;28;20408;-86
2023/09/06 12:36:17;;;;;;;3.03;2.40;;;27.20;1.00;;;;;;4968080;28;20569;-85
2023/09/06 12:38:42;;;;;;;2.70;2.50;;;28.80;1.00;;;;;;4984264;28;20400;-86
2023/09/06 12:41:08;;;;;;;2.70;2.50;;;28.30;1.00;;;;;;4971970;28;20889;-85
2023/09/06 12:43:35;;;;;;;3.13;2.80;;;28.40;1.00;;;;;;4984120;28;20467;-87
2023/09/06 12:46:02;;;;;;;3.03;2.73;;;27.90;1.00;;;;;;4973166;28;20394;-84
2023/09/06 12:48:28;;;;;;;2.83;2.63;;;28.00;1.00;;;;;;4972515;28;20410;-84
2023/09/06 12:50:53;;;;;;;2.88;2.40;;;28.60;1.00;;;;;;4989744;28;20493;-85
2023/09/06 12:53:21;;;;;;;2.70;2.50;;;28.50;1.00;;;;;;4988507;28;20436;-83
2023/09/06 12:55:46;;;;;;;2.97;2.70;;;27.90;1.00;;;;;;4995869;28;20391;-84
2023/09/06 12:58:13;;;;;;;3.00;2.70;;;28.40;1.00;;;;;;4988318;28;20386;-83
2023/09/06 13:00:38;;;;;;;3.60;2.67;;;27.90;1.00;;;;;;4985471;28;20512;-84